Topaz, Idaho
Current Conditions -  °F | °C
As of 1:53 AM on Wednesday 22 Oct 2014 (Local Time) from KPIH Reporting Station
Clear Clear  
Wind Chill: 31°   Ceiling: Unl
Heat Index: 36°   Visibility: 10mi
Dew Point: 31°   Wind: 6mph
Humidity: 82%   Direction: 150°SSE
Pressure: 30.12"   Gusts: NA
Location:  42.5711°N, 112.021°W
Report Text: KPIH 220753Z AUTO 15005KT 10SM CLR 02/M01 A3012 RMK AO2 SLP196 T00221006
Loading
Personal Weather Stations






























Interactive Weather Map
Tropical Storm Tracking
New forecast layout! Learn more

10-Day Weather Forecast

Advertisements
Track Severe Weather on mobile